createdAt,value
2022-10-12T00:01:28.475Z,7.92
2022-10-12T00:03:56.307Z,8.18
2022-10-12T00:06:25.083Z,8.17
2022-10-12T00:08:54.474Z,8.02
2022-10-12T00:11:24.062Z,7.97
2022-10-12T00:13:53.901Z,8.07
2022-10-12T00:16:22.969Z,7.97
2022-10-12T00:18:52.345Z,7.86
2022-10-12T00:21:21.203Z,7.70
2022-10-12T00:23:49.650Z,7.91
2022-10-12T00:26:19.469Z,7.93
2022-10-12T00:28:48.419Z,7.77
2022-10-12T00:31:18.927Z,7.75
2022-10-12T00:33:47.763Z,7.69
2022-10-12T00:36:17.040Z,7.73
2022-10-12T00:38:44.767Z,7.59
2022-10-12T00:41:13.224Z,7.79
2022-10-12T00:43:42.624Z,7.90
2022-10-12T00:46:15.807Z,7.78
2022-10-12T00:48:46.076Z,7.70
2022-10-12T00:51:14.178Z,7.59
2022-10-12T00:53:44.773Z,7.56
2022-10-12T00:56:15.435Z,7.55
2022-10-12T00:58:43.195Z,7.67
2022-10-12T01:01:11.074Z,7.75
2022-10-12T01:03:38.975Z,7.70
2022-10-12T01:06:09.325Z,7.81
2022-10-12T01:08:38.018Z,7.72
2022-10-12T01:11:06.358Z,7.76
2022-10-12T01:13:34.603Z,7.72
2022-10-12T01:16:06.876Z,7.63
2022-10-12T01:18:41.710Z,7.79
2022-10-12T01:21:17.300Z,7.79
2022-10-12T01:24:22.661Z,7.79
2022-10-12T01:27:31.149Z,7.68
2022-10-12T01:30:30.500Z,7.53
2022-10-12T01:33:15.381Z,7.57
2022-10-12T01:35:54.576Z,7.49
2022-10-12T01:38:39.279Z,7.49
2022-10-12T01:41:10.645Z,7.41
2022-10-12T01:43:40.562Z,7.44
2022-10-12T01:46:44.183Z,7.39
2022-10-12T01:49:12.580Z,7.49
2022-10-12T01:51:54.238Z,7.39
2022-10-12T01:54:29.348Z,7.25
2022-10-12T01:57:00.578Z,7.30
2022-10-12T01:59:35.289Z,7.30
2022-10-12T02:02:11.573Z,7.11
2022-10-12T02:04:43.454Z,7.04
2022-10-12T02:07:15.097Z,7.11
2022-10-12T02:09:42.951Z,7.12
2022-10-12T02:12:15.061Z,7.01
2022-10-12T02:14:46.316Z,6.97
2022-10-12T02:17:17.863Z,6.82
2022-10-12T02:19:48.980Z,7.01
2022-10-12T02:22:17.934Z,6.99
2022-10-12T02:24:47.917Z,7.13
2022-10-12T02:27:16.828Z,7.19
2022-10-12T02:29:47.290Z,6.76
2022-10-12T02:32:20.963Z,6.87
2022-10-12T02:34:52.554Z,7.07
2022-10-12T02:37:28.163Z,7.15
2022-10-12T02:39:58.869Z,6.87
2022-10-12T02:42:32.160Z,6.85
2022-10-12T02:45:06.268Z,6.88
2022-10-12T02:47:36.469Z,6.98
2022-10-12T02:50:05.181Z,6.90
2022-10-12T02:52:33.633Z,6.79
2022-10-12T02:55:01.610Z,6.93
2022-10-12T02:57:29.418Z,6.85
2022-10-12T02:59:57.165Z,6.81
2022-10-12T03:02:24.975Z,6.80
2022-10-12T03:04:54.923Z,6.73
2022-10-12T03:07:22.677Z,6.84
2022-10-12T03:09:51.127Z,6.87
2022-10-12T03:12:18.935Z,6.85
2022-10-12T03:14:46.701Z,6.77
2022-10-12T03:17:14.453Z,6.73
2022-10-12T03:19:42.249Z,6.86
2022-10-12T03:22:11.341Z,6.71
2022-10-12T03:24:39.209Z,6.47
2022-10-12T03:27:06.916Z,6.46
2022-10-12T03:29:34.659Z,6.33
2022-10-12T03:32:02.437Z,6.42
2022-10-12T03:34:30.147Z,6.45
2022-10-12T03:36:58.074Z,6.43
2022-10-12T03:39:27.184Z,6.30
2022-10-12T03:41:54.955Z,6.36
2022-10-12T03:44:22.695Z,6.37
2022-10-12T03:46:50.395Z,6.35
2022-10-12T03:49:18.116Z,6.37
2022-10-12T03:51:45.858Z,6.42
2022-10-12T03:54:13.676Z,6.53
2022-10-12T03:56:42.778Z,6.50
2022-10-12T03:59:10.495Z,6.52
2022-10-12T04:01:38.356Z,6.52
2022-10-12T04:04:06.346Z,6.66
2022-10-12T04:06:34.096Z,6.64
2022-10-12T04:09:01.825Z,6.29
2022-10-12T04:11:29.617Z,6.23
2022-10-12T04:13:58.880Z,6.39
2022-10-12T04:16:30.255Z,6.52
2022-10-12T04:18:58.927Z,6.45
2022-10-12T04:21:26.689Z,6.51
2022-10-12T04:23:54.490Z,6.57
2022-10-12T04:26:22.270Z,6.73
2022-10-12T04:28:50.065Z,6.77
2022-10-12T04:31:19.202Z,6.76
2022-10-12T04:33:47.595Z,6.50
2022-10-12T04:36:15.329Z,6.59
2022-10-12T04:38:43.108Z,6.43
2022-10-12T04:41:10.838Z,6.44
2022-10-12T04:43:38.578Z,6.70
2022-10-12T04:46:06.417Z,6.66
2022-10-12T04:48:35.689Z,6.43
2022-10-12T04:51:03.525Z,6.61
2022-10-12T04:53:31.558Z,6.51
2022-10-12T04:55:59.302Z,6.48
2022-10-12T04:58:27.060Z,6.52
2022-10-12T05:00:54.797Z,6.60
2022-10-12T05:03:22.545Z,6.60
2022-10-12T05:05:51.756Z,6.69
2022-10-12T05:08:19.520Z,6.76
2022-10-12T05:10:47.279Z,6.98
2022-10-12T05:13:15.162Z,6.83
2022-10-12T05:15:43.478Z,6.99
2022-10-12T05:18:11.591Z,6.89
2022-10-12T05:20:39.461Z,7.01
2022-10-12T05:23:08.590Z,7.25
2022-10-12T05:25:36.579Z,7.31
2022-10-12T05:28:04.458Z,7.23
2022-10-12T05:30:32.214Z,7.36
2022-10-12T05:33:00.003Z,7.28
2022-10-12T05:35:27.997Z,7.16
2022-10-12T05:37:55.771Z,7.25
2022-10-12T05:40:24.902Z,7.26
2022-10-12T05:42:52.674Z,7.29
2022-10-12T05:45:20.422Z,7.28
2022-10-12T05:47:48.189Z,7.16
2022-10-12T05:50:16.038Z,7.28
2022-10-12T05:52:43.801Z,7.25
2022-10-12T05:55:11.591Z,7.46
2022-10-12T05:57:40.829Z,7.49
2022-10-12T06:00:10.269Z,7.20
2022-10-12T06:02:38.325Z,7.08
2022-10-12T06:05:07.139Z,6.97
2022-10-12T06:07:34.915Z,7.17
2022-10-12T06:10:02.707Z,7.24
2022-10-12T06:12:30.461Z,7.25
2022-10-12T06:14:59.628Z,7.31
2022-10-12T06:17:27.474Z,7.20
2022-10-12T06:19:55.327Z,7.24
2022-10-12T06:22:23.090Z,6.88
2022-10-12T06:24:50.905Z,6.93
2022-10-12T06:27:19.941Z,7.00
2022-10-12T06:29:47.770Z,7.07
2022-10-12T06:32:16.921Z,7.07
2022-10-12T06:34:45.558Z,7.34
2022-10-12T06:37:37.158Z,7.28
2022-10-12T06:40:02.186Z,7.44
2022-10-12T06:42:30.650Z,7.47
2022-10-12T06:44:58.455Z,7.59
2022-10-12T06:47:27.528Z,7.59
2022-10-12T06:49:55.277Z,7.65
2022-10-12T06:52:23.089Z,7.73
2022-10-12T06:54:50.820Z,7.83
2022-10-12T06:57:18.603Z,7.97
2022-10-12T06:59:46.299Z,8.25
2022-10-12T07:02:14.066Z,8.59
2022-10-12T07:04:43.192Z,8.86
2022-10-12T07:07:11.080Z,9.11
2022-10-12T07:09:38.858Z,9.28
2022-10-12T07:12:07.002Z,9.51
2022-10-12T07:14:34.843Z,9.48
2022-10-12T07:17:02.642Z,9.87
2022-10-12T07:19:30.365Z,10.09
2022-10-12T07:21:59.489Z,10.20
2022-10-12T07:24:35.586Z,10.38
2022-10-12T07:27:04.298Z,10.47
2022-10-12T07:29:32.613Z,10.64
2022-10-12T07:32:00.654Z,10.66
2022-10-12T07:34:28.748Z,10.57
2022-10-12T07:36:59.604Z,10.86
2022-10-12T07:39:29.231Z,11.10
2022-10-12T07:41:57.275Z,11.27
2022-10-12T07:44:25.469Z,11.30
2022-10-12T07:46:53.619Z,11.40
2022-10-12T07:49:22.828Z,11.72
2022-10-12T07:51:50.593Z,11.86
2022-10-12T07:54:21.760Z,11.90
2022-10-12T07:56:52.706Z,12.10
2022-10-12T07:59:20.465Z,12.21
2022-10-12T08:01:48.280Z,12.28
2022-10-12T08:04:16.103Z,12.17
2022-10-12T08:06:44.589Z,12.36
2022-10-12T08:09:12.345Z,12.52
2022-10-12T08:11:41.102Z,12.81
2022-10-12T08:14:14.285Z,12.93
2022-10-12T08:16:42.713Z,13.03
2022-10-12T08:19:10.502Z,13.31
2022-10-12T08:21:38.321Z,13.68
2022-10-12T08:24:06.757Z,13.73
2022-10-12T08:26:34.505Z,13.76
2022-10-12T08:29:02.857Z,13.89
2022-10-12T08:31:32.109Z,14.00
2022-10-12T08:34:00.117Z,14.11
2022-10-12T08:36:27.937Z,14.00
2022-10-12T08:38:56.345Z,14.02
2022-10-12T08:41:46.010Z,14.45
2022-10-12T08:44:34.453Z,14.75
2022-10-12T08:47:10.598Z,15.03
2022-10-12T08:49:40.167Z,15.38
2022-10-12T08:52:16.908Z,15.49
2022-10-12T08:54:46.193Z,15.33
2022-10-12T08:57:17.529Z,15.03
2022-10-12T08:59:45.708Z,15.12
2022-10-12T09:02:31.144Z,15.46
2022-10-12T09:05:01.392Z,15.49
2022-10-12T09:07:31.589Z,15.75
2022-10-12T09:10:09.890Z,15.69
2022-10-12T09:12:45.282Z,16.05
2022-10-12T09:15:17.542Z,16.39
2022-10-12T09:17:49.082Z,16.03
2022-10-12T09:20:20.516Z,16.01
2022-10-12T09:22:50.457Z,16.00
2022-10-12T09:25:19.515Z,16.60
2022-10-12T09:27:48.115Z,16.95
2022-10-12T09:30:17.828Z,17.10
2022-10-12T09:33:00.760Z,17.34
2022-10-12T09:35:28.610Z,17.22
2022-10-12T09:37:56.780Z,17.22
2022-10-12T09:40:26.974Z,17.10
2022-10-12T09:42:55.805Z,17.25
2022-10-12T09:45:24.272Z,17.63
2022-10-12T09:48:15.286Z,17.48
2022-10-12T09:50:45.436Z,17.66
2022-10-12T09:53:15.268Z,17.84
2022-10-12T09:55:53.129Z,17.54
2022-10-12T09:58:21.762Z,17.84
2022-10-12T10:01:28.446Z,17.51
2022-10-12T10:04:13.766Z,17.83
2022-10-12T10:06:43.102Z,17.76
2022-10-12T10:09:28.162Z,17.81
2022-10-12T10:11:56.149Z,17.81
2022-10-12T10:14:23.970Z,17.87
2022-10-12T10:16:54.504Z,17.19
2022-10-12T10:19:26.349Z,17.37
2022-10-12T10:21:54.811Z,16.98
2022-10-12T10:24:27.802Z,17.11
2022-10-12T10:26:58.327Z,17.63
2022-10-12T10:29:36.308Z,17.78
2022-10-12T10:32:26.874Z,17.50
2022-10-12T10:35:07.261Z,17.70
2022-10-12T10:37:35.304Z,18.22
2022-10-12T10:40:03.936Z,18.62
2022-10-12T10:42:33.084Z,18.21
2022-10-12T10:45:02.612Z,18.99
2022-10-12T10:47:31.149Z,19.04
2022-10-12T10:50:00.292Z,19.95
2022-10-12T10:52:31.439Z,21.00
2022-10-12T10:55:18.485Z,20.39
2022-10-12T10:57:49.273Z,20.02
2022-10-12T11:00:37.863Z,19.57
2022-10-12T11:03:12.527Z,19.39
2022-10-12T11:05:44.592Z,19.94
2022-10-12T11:08:17.485Z,20.31
2022-10-12T11:10:49.497Z,19.35
2022-10-12T11:13:19.251Z,18.77
2022-10-12T11:15:51.050Z,18.46
2022-10-12T11:18:22.821Z,18.73
2022-10-12T11:20:53.896Z,18.43
2022-10-12T11:23:37.808Z,18.79
2022-10-12T11:26:11.300Z,19.14
2022-10-12T11:28:40.366Z,18.95
2022-10-12T11:31:17.218Z,19.57
2022-10-12T11:33:45.933Z,19.47
2022-10-12T11:36:16.055Z,19.41
2022-10-12T11:38:47.183Z,19.21
2022-10-12T11:44:07.112Z,18.47
2022-10-12T11:46:36.973Z,18.72
2022-10-12T11:49:10.079Z,18.75
2022-10-12T11:51:37.911Z,18.64
2022-10-12T11:54:10.185Z,18.96
2022-10-12T11:56:40.730Z,18.53
2022-10-12T11:59:15.792Z,18.32
2022-10-12T12:01:58.913Z,18.32
2022-10-12T12:04:42.748Z,18.90
2022-10-12T12:07:40.422Z,18.64
2022-10-12T12:10:41.414Z,18.98
2022-10-12T12:13:20.464Z,18.11
2022-10-12T12:16:30.990Z,17.98
2022-10-12T12:19:41.063Z,18.31
2022-10-12T12:22:31.580Z,18.16
2022-10-12T12:25:17.050Z,18.45
2022-10-12T12:27:47.112Z,18.33
2022-10-12T12:30:29.850Z,18.16
2022-10-12T12:32:59.038Z,18.04
2022-10-12T12:35:32.677Z,18.00
2022-10-12T12:38:22.717Z,18.19
2022-10-12T12:41:08.965Z,18.54
2022-10-12T12:43:58.526Z,18.97
2022-10-12T12:47:43.485Z,19.61
2022-10-12T12:50:01.845Z,19.29
2022-10-12T12:52:30.967Z,19.70
2022-10-12T12:55:36.589Z,19.41
2022-10-12T12:58:23.957Z,20.10
2022-10-12T13:01:00.749Z,20.15
2022-10-12T13:03:45.259Z,20.51
2022-10-12T13:06:55.732Z,20.31
2022-10-12T13:09:43.420Z,20.16
2022-10-12T13:12:22.986Z,19.93
2022-10-12T13:15:08.130Z,19.46
2022-10-12T13:17:47.969Z,19.80
2022-10-12T13:20:18.861Z,19.55
2022-10-12T13:22:50.300Z,19.99
2022-10-12T13:25:28.256Z,19.93
2022-10-12T13:27:56.094Z,19.06
2022-10-12T13:30:29.970Z,18.93
2022-10-12T13:33:02.965Z,19.06
2022-10-12T13:35:33.400Z,19.44
2022-10-12T13:38:05.142Z,18.64
2022-10-12T13:40:36.969Z,18.68
2022-10-12T13:43:28.305Z,19.26
2022-10-12T13:45:56.159Z,19.36
2022-10-12T13:48:46.329Z,19.17
2022-10-12T13:51:24.228Z,18.89
2022-10-12T13:53:53.509Z,18.61
2022-10-12T13:56:24.036Z,18.26
2022-10-12T13:58:53.191Z,18.59
2022-10-12T14:01:21.096Z,19.22
2022-10-12T14:03:48.850Z,19.30
2022-10-12T14:06:28.489Z,19.45
2022-10-12T14:08:58.907Z,19.44
2022-10-12T14:11:27.719Z,19.45
2022-10-12T14:13:55.587Z,19.63
2022-10-12T14:16:23.380Z,19.62
2022-10-12T14:18:51.657Z,19.94
2022-10-12T14:21:23.627Z,20.68
2022-10-12T14:23:53.865Z,20.45
2022-10-12T14:26:29.906Z,20.40
2022-10-12T14:28:58.960Z,20.98
2022-10-12T14:31:52.098Z,22.02
2022-10-12T14:34:35.305Z,21.03
2022-10-12T14:37:04.489Z,19.65
2022-10-12T14:39:32.416Z,19.74
2022-10-12T14:42:04.089Z,19.89
2022-10-12T14:44:43.086Z,20.17
2022-10-12T14:47:17.180Z,19.78
2022-10-12T14:49:46.766Z,19.93
2022-10-12T14:52:19.110Z,19.50
2022-10-12T14:54:50.932Z,19.63
2022-10-12T14:57:20.702Z,19.14
2022-10-12T14:59:48.947Z,19.06
2022-10-12T15:02:18.716Z,19.27
2022-10-12T15:04:47.165Z,18.74
2022-10-12T15:07:20.186Z,18.72
2022-10-12T15:09:48.461Z,19.23
2022-10-12T15:12:17.740Z,19.42
2022-10-12T15:14:47.429Z,19.46
2022-10-12T15:17:16.229Z,19.61
2022-10-12T15:19:45.234Z,19.46
2022-10-12T15:22:16.123Z,19.77
2022-10-12T15:24:43.909Z,19.15
2022-10-12T15:27:11.817Z,19.05
2022-10-12T15:29:40.020Z,19.22
2022-10-12T15:32:11.180Z,19.05
2022-10-12T15:34:39.066Z,18.71
2022-10-12T15:37:09.246Z,18.54
2022-10-12T15:39:37.327Z,18.38
2022-10-12T15:42:05.250Z,18.17
2022-10-12T15:44:33.074Z,18.36
2022-10-12T15:47:00.869Z,18.47
2022-10-12T15:49:29.994Z,18.33
2022-10-12T15:51:57.896Z,17.85
2022-10-12T15:54:25.622Z,17.56
2022-10-12T15:56:53.378Z,17.58
2022-10-12T15:59:21.246Z,17.54
2022-10-12T16:01:49.005Z,17.49
2022-10-12T16:04:16.828Z,17.38
2022-10-12T16:06:45.959Z,16.93
2022-10-12T16:09:13.737Z,17.07
2022-10-12T16:11:41.579Z,16.80
2022-10-12T16:14:10.910Z,16.81
2022-10-12T16:16:38.697Z,16.76
2022-10-12T16:19:06.444Z,16.85
2022-10-12T16:21:34.161Z,16.58
2022-10-12T16:24:03.529Z,16.54
2022-10-12T16:26:31.292Z,16.67
2022-10-12T16:28:59.100Z,16.72
2022-10-12T16:31:26.935Z,17.19
2022-10-12T16:33:54.650Z,17.31
2022-10-12T16:36:22.436Z,17.23
2022-10-12T16:38:50.155Z,17.32
2022-10-12T16:41:19.279Z,17.33
2022-10-12T16:43:47.116Z,17.28
2022-10-12T16:46:14.889Z,17.20
2022-10-12T16:48:43.930Z,17.12
2022-10-12T16:51:13.114Z,17.01
2022-10-12T16:53:42.234Z,16.87
2022-10-12T16:56:10.091Z,16.80
2022-10-12T16:58:39.213Z,16.59
2022-10-12T17:01:11.280Z,16.42
2022-10-12T17:03:39.146Z,16.38
2022-10-12T17:06:07.510Z,16.27
2022-10-12T17:08:38.764Z,16.23
2022-10-12T17:11:07.981Z,16.24
2022-10-12T17:13:37.273Z,16.15
2022-10-12T17:16:27.353Z,16.10
2022-10-12T17:18:59.265Z,16.01
2022-10-12T17:21:27.496Z,15.91
2022-10-12T17:23:56.905Z,15.84
2022-10-12T17:26:24.696Z,15.80
2022-10-12T17:28:52.471Z,15.79
2022-10-12T17:31:21.669Z,15.64
2022-10-12T17:33:50.122Z,15.45
2022-10-12T17:36:18.006Z,15.37
2022-10-12T17:38:49.042Z,15.33
2022-10-12T17:41:16.884Z,15.25
2022-10-12T17:43:44.644Z,15.15
2022-10-12T17:46:12.365Z,15.08
2022-10-12T17:48:41.567Z,15.00
2022-10-12T17:51:12.575Z,14.84
2022-10-12T17:53:41.022Z,14.82
2022-10-12T17:56:11.196Z,14.77
2022-10-12T17:58:39.234Z,14.80
2022-10-12T18:01:09.197Z,14.80
2022-10-12T18:03:39.104Z,14.68
2022-10-12T18:06:11.229Z,14.57
2022-10-12T18:08:39.197Z,14.35
2022-10-12T18:11:08.017Z,14.32
2022-10-12T18:13:36.741Z,14.35
2022-10-12T18:16:05.450Z,14.34
2022-10-12T18:18:33.178Z,14.27
2022-10-12T18:21:01.024Z,14.31
2022-10-12T18:23:30.126Z,14.20
2022-10-12T18:25:57.874Z,14.10
2022-10-12T18:28:25.782Z,14.10
2022-10-12T18:30:53.720Z,14.04
2022-10-12T18:33:21.891Z,13.90
2022-10-12T18:35:49.709Z,13.90
2022-10-12T18:38:17.480Z,13.84
2022-10-12T18:40:47.799Z,13.88
2022-10-12T18:43:15.650Z,13.78
2022-10-12T18:45:43.601Z,13.62
2022-10-12T18:48:11.491Z,13.58
2022-10-12T18:50:39.797Z,13.61
2022-10-12T18:53:07.993Z,13.60
2022-10-12T18:55:37.874Z,13.45
2022-10-12T18:58:07.102Z,13.41
2022-10-12T19:00:34.934Z,13.34
2022-10-12T19:03:02.885Z,13.10
2022-10-12T19:05:30.676Z,13.16
2022-10-12T19:07:58.408Z,13.14
2022-10-12T19:10:26.200Z,12.99
2022-10-12T19:12:53.926Z,12.95
2022-10-12T19:15:23.363Z,12.88
2022-10-12T19:17:51.154Z,12.79
2022-10-12T19:20:18.907Z,12.64
2022-10-12T19:22:46.645Z,12.62
2022-10-12T19:25:14.401Z,12.54
2022-10-12T19:27:42.197Z,12.52
2022-10-12T19:30:10.562Z,12.59
2022-10-12T19:32:39.779Z,12.57
2022-10-12T19:35:08.006Z,12.28
2022-10-12T19:37:36.153Z,12.35
2022-10-12T19:40:07.770Z,12.28
2022-10-12T19:42:35.906Z,12.20
2022-10-12T19:45:03.717Z,12.17
2022-10-12T19:47:31.568Z,12.18
2022-10-12T19:50:01.542Z,11.96
2022-10-12T19:52:29.968Z,12.08
2022-10-12T19:54:57.777Z,12.13
2022-10-12T19:57:25.533Z,12.07
2022-10-12T19:59:53.272Z,12.05
2022-10-12T20:02:21.281Z,12.00
2022-10-12T20:04:53.766Z,11.94
2022-10-12T20:07:22.907Z,11.67
2022-10-12T20:09:50.675Z,11.69
2022-10-12T20:12:18.679Z,11.78
2022-10-12T20:14:46.752Z,11.83
2022-10-12T20:17:14.517Z,11.82
2022-10-12T20:19:42.231Z,11.78
2022-10-12T20:22:09.947Z,11.67
2022-10-12T20:24:39.065Z,11.66
2022-10-12T20:27:06.812Z,11.64
2022-10-12T20:29:34.805Z,11.68
2022-10-12T20:32:02.610Z,11.59
2022-10-12T20:34:30.362Z,11.63
2022-10-12T20:36:58.140Z,11.38
2022-10-12T20:39:25.972Z,11.57
2022-10-12T20:41:55.088Z,11.68
2022-10-12T20:44:22.849Z,11.72
2022-10-12T20:46:55.859Z,11.64
2022-10-12T20:49:23.587Z,11.37
2022-10-12T20:51:51.381Z,11.42
2022-10-12T20:54:19.162Z,11.42
2022-10-12T20:56:51.805Z,11.42
2022-10-12T20:59:20.949Z,11.40
2022-10-12T21:01:48.817Z,11.36
2022-10-12T21:04:16.554Z,11.30
2022-10-12T21:06:44.264Z,11.34
2022-10-12T21:09:14.170Z,11.31
2022-10-12T21:11:43.590Z,11.34
2022-10-12T21:14:12.782Z,11.35
2022-10-12T21:16:41.880Z,11.35
2022-10-12T21:19:09.609Z,11.27
2022-10-12T21:21:37.373Z,11.12
2022-10-12T21:24:05.538Z,11.21
2022-10-12T21:26:33.339Z,11.27
2022-10-12T21:29:01.183Z,11.14
2022-10-12T21:31:32.367Z,11.14
2022-10-12T21:34:03.645Z,11.20
2022-10-12T21:36:32.540Z,11.21
2022-10-12T21:39:00.299Z,11.15
2022-10-12T21:41:29.584Z,11.10
2022-10-12T21:43:58.472Z,11.07
2022-10-12T21:46:27.722Z,11.07
2022-10-12T21:48:55.655Z,11.03
2022-10-12T21:51:25.602Z,11.04
2022-10-12T21:53:53.901Z,11.05
2022-10-12T21:56:23.816Z,11.07
2022-10-12T21:58:52.749Z,11.04
2022-10-12T22:01:21.933Z,10.95
2022-10-12T22:03:53.676Z,10.98
2022-10-12T22:06:22.768Z,10.97
2022-10-12T22:08:54.183Z,10.92
2022-10-12T22:11:22.503Z,10.96
2022-10-12T22:13:50.510Z,11.05
2022-10-12T22:16:19.266Z,11.03
2022-10-12T22:18:47.190Z,10.99
2022-10-12T22:21:16.933Z,11.01
2022-10-12T22:23:45.642Z,11.02
2022-10-12T22:26:16.085Z,11.02
2022-10-12T22:28:54.228Z,11.05
2022-10-12T22:31:23.035Z,11.01
2022-10-12T22:33:50.748Z,11.04
2022-10-12T22:36:18.700Z,11.03
2022-10-12T22:38:46.456Z,10.96
2022-10-12T22:41:17.416Z,11.04
2022-10-12T22:43:48.159Z,11.12
2022-10-12T22:46:16.131Z,11.16
2022-10-12T22:48:43.974Z,11.11
2022-10-12T22:51:17.077Z,11.23
2022-10-12T22:53:44.899Z,11.30
2022-10-12T22:56:17.503Z,11.35
2022-10-12T22:58:46.665Z,11.34
2022-10-12T23:01:16.155Z,11.37
2022-10-12T23:03:44.036Z,11.46
2022-10-12T23:06:12.875Z,11.42
2022-10-12T23:08:41.209Z,11.50
2022-10-12T23:11:10.664Z,11.55
2022-10-12T23:13:40.526Z,11.60
2022-10-12T23:16:10.208Z,11.76
2022-10-12T23:18:38.989Z,11.63
2022-10-12T23:21:08.632Z,11.74
2022-10-12T23:23:37.214Z,11.81
2022-10-12T23:26:06.752Z,11.91
2022-10-12T23:28:34.884Z,12.01
2022-10-12T23:31:05.652Z,12.11
2022-10-12T23:33:33.649Z,12.01
2022-10-12T23:36:03.624Z,12.11
2022-10-12T23:38:33.301Z,12.18
2022-10-12T23:41:01.255Z,12.25
2022-10-12T23:43:29.222Z,12.24
2022-10-12T23:46:02.360Z,12.38
2022-10-12T23:48:31.581Z,12.48
2022-10-12T23:50:59.436Z,12.48
2022-10-12T23:53:27.317Z,12.55
2022-10-12T23:55:55.253Z,12.61
2022-10-12T23:58:23.086Z,12.68
